aviador You're here:

YCFS Decoded Metar

in
Report Time2017-11-23 20:00:00
UTC Time2017-11-23 20:29:54
Flight Rules vfr VFR
Wind280° at 03 kt
W.Decomp.*RWY 28: 3.0 kt HW 0 kt LCW
RWY 21: 1.0 kt HW 2.8 kt RCW
W.Rank280° ranks 24
Current wind is below 280° avg. (4.2)
Visibility9999 m
Phenomena:N/A
Clouds:N/A
Expected CloudBase > 800 ft AGL from Temp-Dew spread
CeilingNone
Temp17°C
Dew Point15°C (88% RH)
QNH1017 hPa
Raw Report
METAR YCFS 232000Z AUTO 28003KT 9999 // NCD 17/15 Q1017=

Extra information for YCFS:More info

Social comments